Time;durP1;ratioP1;P1;durP2;ratioP2;P2;SDS_P1;SDS_P2;PMS_P1;PMS_P2;Temp;Humidity;BMP_temperature;BMP_pressure;BME280_temperature;BME280_humidity;BME280_pressure;Samples;Min_cycle;Max_cycle;Signal;HPM_P1;HPM_P2
2023/08/21 00:00:50;;;;;;;124.23;117.53;;;;;;;17.60;100.00;102262.78;5091881;28;20429;-40
2023/08/21 00:03:18;;;;;;;116.97;112.27;;;;;;;17.59;100.00;102261.13;5091191;28;20432;-40
2023/08/21 00:05:45;;;;;;;116.50;111.60;;;;;;;17.60;100.00;102260.91;5092007;28;20555;-40
2023/08/21 00:08:13;;;;;;;117.70;110.80;;;;;;;17.58;100.00;102264.84;5092069;28;20535;-40
2023/08/21 00:10:41;;;;;;;124.67;118.77;;;;;;;17.61;100.00;102267.16;5091875;28;20780;-41
2023/08/21 00:13:09;;;;;;;114.73;110.47;;;;;;;17.63;100.00;102259.66;5091470;28;20911;-42
2023/08/21 00:15:40;;;;;;;126.60;121.17;;;;;;;17.65;100.00;102263.00;5091468;28;20437;-41
2023/08/21 00:18:08;;;;;;;112.03;107.83;;;;;;;17.66;100.00;102265.47;5091727;28;20445;-41
2023/08/21 00:20:35;;;;;;;129.03;124.03;;;;;;;17.68;100.00;102266.09;5091544;28;20453;-43
2023/08/21 00:23:03;;;;;;;122.30;117.67;;;;;;;17.68;100.00;102258.00;5091435;28;20476;-41
2023/08/21 00:25:31;;;;;;;128.77;122.90;;;;;;;17.70;100.00;102268.59;5090695;28;20563;-44
2023/08/21 00:27:58;;;;;;;123.13;118.37;;;;;;;17.71;100.00;102259.50;5091780;28;20453;-41
2023/08/21 00:30:26;;;;;;;119.00;114.43;;;;;;;17.70;100.00;102257.81;5091795;28;20441;-43
2023/08/21 00:32:55;;;;;;;126.03;120.83;;;;;;;17.68;100.00;102260.69;5091397;28;20429;-40
2023/08/21 00:35:23;;;;;;;128.10;123.43;;;;;;;17.66;100.00;102259.25;5091204;28;20453;-42
2023/08/21 00:37:50;;;;;;;130.37;125.23;;;;;;;17.63;100.00;102257.81;5091517;28;20445;-42
2023/08/21 00:40:18;;;;;;;128.13;123.10;;;;;;;17.61;100.00;102259.88;5091396;28;20539;-40
2023/08/21 00:42:46;;;;;;;137.83;131.57;;;;;;;17.59;100.00;102253.84;5091290;28;20465;-45
2023/08/21 00:45:14;;;;;;;129.83;124.73;;;;;;;17.57;100.00;102253.22;5094932;28;20559;-42
2023/08/21 00:47:44;;;;;;;131.27;125.67;;;;;;;17.57;100.00;102257.78;5095384;28;20452;-40
2023/08/21 00:50:15;;;;;;;134.90;129.30;;;;;;;17.58;100.00;102254.91;5095370;28;20950;-41
2023/08/21 00:52:45;;;;;;;126.50;121.60;;;;;;;17.60;100.00;102254.69;5095040;28;20468;-40
2023/08/21 00:55:14;;;;;;;128.37;123.47;;;;;;;17.60;100.00;102263.63;5094963;28;20898;-42
2023/08/21 00:57:42;;;;;;;126.63;121.23;;;;;;;17.63;100.00;102263.19;5095388;28;20822;-40
2023/08/21 01:00:12;;;;;;;130.30;123.30;;;;;;;17.63;100.00;102265.06;5095378;28;20424;-42
2023/08/21 01:02:40;;;;;;;126.47;121.30;;;;;;;17.64;100.00;102261.34;5094936;28;20502;-41
2023/08/21 01:05:13;;;;;;;125.13;120.27;;;;;;;17.63;100.00;102259.66;5094482;28;20536;-40
2023/08/21 01:07:50;;;;;;;127.67;121.60;;;;;;;17.63;100.00;102259.66;5095017;28;20544;-42
2023/08/21 01:10:24;;;;;;;131.33;124.53;;;;;;;17.58;100.00;102262.16;5095220;28;20456;-41
2023/08/21 01:12:58;;;;;;;130.10;124.50;;;;;;;17.58;100.00;102256.75;5094829;28;20524;-42
2023/08/21 01:15:26;;;;;;;136.87;129.60;;;;;;;17.56;100.00;102261.53;5094506;28;20873;-40
2023/08/21 01:17:54;;;;;;;131.63;125.90;;;;;;;17.52;100.00;102266.47;5094940;28;20481;-40
2023/08/21 01:20:24;;;;;;;125.00;119.90;;;;;;;17.51;100.00;102263.97;5095103;28;20436;-40
2023/08/21 01:22:52;;;;;;;123.50;118.70;;;;;;;17.53;100.00;102264.63;5094778;28;20433;-40
2023/08/21 01:25:21;;;;;;;131.77;126.07;;;;;;;17.50;100.00;102270.44;5094108;28;20490;-41
2023/08/21 01:27:51;;;;;;;134.97;126.93;;;;;;;17.47;100.00;102265.44;5094642;28;20479;-42
2023/08/21 01:30:19;;;;;;;122.90;118.27;;;;;;;17.47;100.00;102266.25;5094604;28;20487;-42
2023/08/21 01:32:53;;;;;;;131.50;126.20;;;;;;;17.50;100.00;102267.72;5093684;28;20436;-40
2023/08/21 01:35:22;;;;;;;134.20;128.13;;;;;;;17.52;100.00;102273.75;5093891;28;20996;-42
2023/08/21 01:37:50;;;;;;;128.87;123.87;;;;;;;17.50;100.00;102265.03;5094160;28;20453;-41
2023/08/21 01:40:23;;;;;;;130.93;125.73;;;;;;;17.49;100.00;102271.44;5093443;28;20476;-42
2023/08/21 01:42:50;;;;;;;150.47;134.60;;;;;;;17.43;100.00;102269.56;5094484;28;20795;-40
2023/08/21 01:45:18;;;;;;;136.93;130.70;;;;;;;17.41;100.00;102272.47;5093890;28;21001;-44
2023/08/21 01:47:46;;;;;;;153.83;138.50;;;;;;;17.43;100.00;102278.50;5094300;28;20511;-40
2023/08/21 01:50:13;;;;;;;134.17;127.53;;;;;;;17.47;100.00;102268.94;5094236;28;20468;-42
2023/08/21 01:52:41;;;;;;;138.10;131.27;;;;;;;17.48;100.00;102270.63;5093947;28;20472;-43
2023/08/21 01:55:10;;;;;;;144.63;132.93;;;;;;;17.51;100.00;102267.50;5092544;28;20890;-40
2023/08/21 01:57:39;;;;;;;136.73;129.40;;;;;;;17.53;100.00;102272.72;5093977;28;20514;-45
2023/08/21 02:00:08;;;;;;;151.47;137.37;;;;;;;17.54;100.00;102275.22;5093818;28;20464;-40
2023/08/21 02:02:36;;;;;;;289.53;145.93;;;;;;;17.53;100.00;102268.13;5093048;28;20969;-41
2023/08/21 02:05:05;;;;;;;140.93;129.23;;;;;;;17.54;100.00;102272.53;5093179;28;20491;-41
2023/08/21 02:07:33;;;;;;;134.63;126.17;;;;;;;17.55;100.00;102263.41;5093306;28;20484;-41
2023/08/21 02:10:00;;;;;;;133.40;126.60;;;;;;;17.57;100.00;102269.41;5093714;28;20497;-40
2023/08/21 02:12:28;;;;;;;136.70;130.40;;;;;;;17.60;100.00;102273.56;5093804;28;21015;-40
2023/08/21 02:14:57;;;;;;;142.80;132.73;;;;;;;17.60;100.00;102268.16;5093319;28;20548;-43
2023/08/21 02:17:27;;;;;;;138.30;132.30;;;;;;;17.62;100.00;102275.00;5093678;28;20449;-41
2023/08/21 02:19:55;;;;;;;135.90;130.00;;;;;;;17.59;100.00;102272.72;5093788;28;20444;-41
2023/08/21 02:22:22;;;;;;;141.53;131.83;;;;;;;17.60;100.00;102273.56;5093114;28;20857;-40
2023/08/21 02:24:50;;;;;;;138.70;129.77;;;;;;;17.60;100.00;102276.25;5093099;28;20457;-42
2023/08/21 02:27:17;;;;;;;135.43;130.03;;;;;;;17.63;100.00;102284.78;5092829;28;20476;-42
2023/08/21 02:29:45;;;;;;;136.77;131.10;;;;;;;17.61;100.00;102276.06;5093210;28;20430;-43
2023/08/21 02:32:14;;;;;;;138.77;133.03;;;;;;;17.63;100.00;102278.56;5093031;28;20870;-41
2023/08/21 02:34:42;;;;;;;132.53;127.43;;;;;;;17.63;100.00;102275.84;5092923;28;20457;-42
2023/08/21 02:37:09;;;;;;;132.27;126.80;;;;;;;17.59;100.00;102283.53;5093154;28;20455;-41
2023/08/21 02:39:37;;;;;;;141.43;135.23;;;;;;;17.57;100.00;102280.22;5093479;28;20800;-44
2023/08/21 02:42:05;;;;;;;139.23;133.63;;;;;;;17.52;100.00;102276.44;5092914;28;20464;-42
2023/08/21 02:44:32;;;;;;;133.03;127.60;;;;;;;17.50;100.00;102275.81;5092793;28;20631;-41
2023/08/21 02:47:00;;;;;;;138.37;133.07;;;;;;;17.50;100.00;102273.94;5092950;28;20495;-43
2023/08/21 02:49:29;;;;;;;128.90;123.90;;;;;;;17.52;100.00;102279.97;5093076;28;20524;-43
2023/08/21 02:51:57;;;;;;;125.00;120.30;;;;;;;17.53;100.00;102283.50;5092290;28;20532;-42
2023/08/21 02:54:24;;;;;;;127.33;122.10;;;;;;;17.51;100.00;102281.00;5092371;28;20465;-42
2023/08/21 02:56:52;;;;;;;122.10;117.37;;;;;;;17.51;100.00;102280.16;5092868;28;20477;-43
2023/08/21 02:59:19;;;;;;;127.03;122.53;;;;;;;17.53;100.00;102280.81;5092853;28;20436;-42
2023/08/21 03:01:47;;;;;;;122.77;118.37;;;;;;;17.54;100.00;102268.97;5092333;28;20429;-42
2023/08/21 03:04:16;;;;;;;120.67;115.97;;;;;;;17.55;100.00;102268.81;5092198;28;20481;-46
2023/08/21 03:06:45;;;;;;;123.50;118.70;;;;;;;17.55;100.00;102271.50;5092174;28;20970;-43
2023/08/21 03:09:14;;;;;;;122.93;118.03;;;;;;;17.56;100.00;102275.84;5092557;28;20521;-44
2023/08/21 03:11:41;;;;;;;128.03;123.30;;;;;;;17.55;100.00;102276.06;5092505;28;20510;-42
2023/08/21 03:14:09;;;;;;;126.43;121.13;;;;;;;17.52;100.00;102277.28;5092098;28;20508;-45
2023/08/21 03:16:37;;;;;;;122.63;117.73;;;;;;;17.52;100.00;102273.75;5092562;28;20802;-42
2023/08/21 03:19:04;;;;;;;125.80;120.47;;;;;;;17.50;100.00;102273.13;5092433;28;20425;-42
2023/08/21 03:21:32;;;;;;;115.90;111.50;;;;;;;17.49;100.00;102276.84;5092533;28;20550;-43
2023/08/21 03:24:01;;;;;;;122.33;116.47;;;;;;;17.45;100.00;102275.59;5091793;28;21030;-42
2023/08/21 03:26:31;;;;;;;119.40;113.23;;;;;;;17.43;100.00;102274.97;5092288;28;20444;-43
2023/08/21 03:28:59;;;;;;;113.27;108.50;;;;;;;17.42;100.00;102276.00;5092222;28;20465;-47
2023/08/21 03:31:27;;;;;;;123.23;113.53;;;;;;;17.38;100.00;102277.47;5092031;28;20513;-42
2023/08/21 03:33:54;;;;;;;123.13;117.53;;;;;;;17.38;100.00;102285.53;5091380;28;20879;-47
2023/08/21 03:36:30;;;;;;;123.00;115.30;;;;;;;17.36;100.00;102280.34;5092057;28;21175;-47
2023/08/21 03:38:58;;;;;;;117.77;113.13;;;;;;;17.33;100.00;102283.44;5092138;28;20445;-45
2023/08/21 03:41:27;;;;;;;114.77;109.23;;;;;;;17.29;100.00;102276.81;5091904;28;20456;-44
2023/08/21 03:43:55;;;;;;;109.40;102.57;;;;;;;17.25;100.00;102278.25;5091945;28;20485;-42
2023/08/21 03:46:22;;;;;;;108.23;103.83;;;;;;;17.23;100.00;102268.69;5092273;28;20425;-41
2023/08/21 03:48:51;;;;;;;103.60;99.60;;;;;;;17.23;100.00;102276.78;5089818;28;20473;-43
2023/08/21 03:51:18;;;;;;;104.83;99.67;;;;;;;17.19;100.00;102262.03;5089616;28;20441;-43
2023/08/21 03:53:46;;;;;;;117.17;106.67;;;;;;;17.18;100.00;102266.59;5088831;28;20457;-41
2023/08/21 03:56:14;;;;;;;106.67;101.10;;;;;;;17.14;100.00;102268.06;5089082;28;20506;-44
2023/08/21 03:58:43;;;;;;;111.40;106.33;;;;;;;17.14;100.00;102263.47;5089110;28;20472;-43
2023/08/21 04:01:11;;;;;;;116.47;108.90;;;;;;;17.13;100.00;102263.69;5089222;28;20440;-43
2023/08/21 04:03:38;;;;;;;104.50;99.30;;;;;;;17.14;100.00;102260.78;5088395;28;20507;-42
2023/08/21 04:06:06;;;;;;;105.03;100.03;;;;;;;17.15;100.00;102267.00;5088735;28;20535;-42
2023/08/21 04:08:34;;;;;;;103.87;97.60;;;;;;;17.15;100.00;102272.41;5089080;28;20496;-41
2023/08/21 04:11:02;;;;;;;106.03;100.10;;;;;;;17.14;100.00;102274.25;5089026;28;20439;-44
2023/08/21 04:13:30;;;;;;;109.57;101.47;;;;;;;17.13;100.00;102271.78;5088005;28;20436;-42
2023/08/21 04:15:59;;;;;;;107.63;97.93;;;;;;;17.10;100.00;102270.31;5089258;28;20772;-43
2023/08/21 04:18:27;;;;;;;94.00;89.57;;;;;;;17.06;100.00;102276.31;5087965;28;20441;-44
2023/08/21 04:21:08;;;;;;;97.07;92.20;;;;;;;17.07;100.00;102273.44;5089154;28;20421;-44
2023/08/21 04:23:36;;;;;;;95.20;89.23;;;;;;;17.06;100.00;102274.44;5088574;28;20449;-42
2023/08/21 04:26:05;;;;;;;91.07;87.10;;;;;;;17.04;100.00;102278.38;5088348;28;20447;-41
2023/08/21 04:28:33;;;;;;;84.63;81.20;;;;;;;17.05;100.00;102278.16;5088298;28;20681;-41
2023/08/21 04:31:05;;;;;;;91.80;86.80;;;;;;;17.03;100.00;102274.84;5088562;28;20425;-42
2023/08/21 04:33:34;;;;;;;93.03;87.53;;;;;;;17.07;100.00;102275.28;5087922;28;20476;-41
2023/08/21 04:36:01;;;;;;;83.90;79.93;;;;;;;17.09;100.00;102279.44;5088444;28;20516;-42
2023/08/21 04:38:29;;;;;;;77.47;74.27;;;;;;;17.16;100.00;102274.06;5088934;28;20565;-43
2023/08/21 04:40:57;;;;;;;75.30;70.87;;;;;;;17.20;100.00;102269.94;5089180;28;20461;-41
2023/08/21 04:43:24;;;;;;;80.03;75.07;;;;;;;17.24;100.00;102273.88;5088672;28;20436;-45
2023/08/21 04:45:53;;;;;;;71.10;67.30;;;;;;;17.25;100.00;102274.72;5089594;28;20482;-43
2023/08/21 04:48:22;;;;;;;70.43;66.90;;;;;;;17.25;100.00;102263.94;5088494;28;20477;-42
2023/08/21 04:50:50;;;;;;;70.17;66.57;;;;;;;17.28;100.00;102268.91;5089004;28;20531;-44
2023/08/21 04:53:18;;;;;;;66.40;63.00;;;;;;;17.37;100.00;102262.31;5087483;28;20440;-44
2023/08/21 04:55:45;;;;;;;72.30;66.70;;;;;;;17.37;100.00;102263.13;5088870;28;20433;-42
2023/08/21 04:58:13;;;;;;;76.57;64.07;;;;;;;17.41;100.00;102268.97;5088609;28;20449;-43
2023/08/21 05:00:41;;;;;;;61.87;57.93;;;;;;;17.47;100.00;102268.94;5088324;28;20436;-46
2023/08/21 05:03:09;;;;;;;57.27;54.40;;;;;;;17.53;100.00;102268.13;5088596;28;20926;-42
2023/08/21 05:05:38;;;;;;;56.33;53.23;;;;;;;17.61;100.00;102269.84;5087994;28;20867;-43
2023/08/21 05:08:06;;;;;;;102.37;54.90;;;;;;;17.55;100.00;102265.28;5087800;28;20508;-42
2023/08/21 05:10:34;;;;;;;78.60;54.53;;;;;;;17.50;100.00;102267.72;5088481;28;20810;-41
2023/08/21 05:13:02;;;;;;;54.23;49.23;;;;;;;17.43;100.00;102266.88;5088124;28;20429;-43
2023/08/21 05:15:29;;;;;;;45.70;43.00;;;;;;;17.49;100.00;102263.38;5088113;28;20835;-46
2023/08/21 05:17:57;;;;;;;45.93;43.33;;;;;;;17.58;100.00;102267.56;5088666;28;20473;-44
2023/08/21 05:20:25;;;;;;;51.03;46.37;;;;;;;17.64;100.00;102269.44;5088473;28;20508;-44
2023/08/21 05:22:54;;;;;;;44.13;41.00;;;;;;;17.75;100.00;102271.50;5088795;28;20532;-43
2023/08/21 05:25:21;;;;;;;38.97;36.43;;;;;;;17.94;100.00;102270.69;5088094;28;20857;-43
2023/08/21 05:27:49;;;;;;;37.37;35.00;;;;;;;18.04;100.00;102281.88;5087767;28;20534;-42
2023/08/21 05:30:17;;;;;;;34.50;32.63;;;;;;;18.14;100.00;102276.06;5088899;28;20456;-41
2023/08/21 05:32:45;;;;;;;41.30;38.60;;;;;;;18.13;100.00;102275.22;5092018;28;20803;-43
2023/08/21 05:35:13;;;;;;;31.07;29.57;;;;;;;18.38;100.00;102269.19;5091903;28;20464;-42
2023/08/21 05:37:40;;;;;;;31.93;30.33;;;;;;;18.53;100.00;102267.09;5091545;28;20526;-43
2023/08/21 05:40:11;;;;;;;33.83;31.57;;;;;;;18.65;100.00;102271.63;5091678;28;20432;-42
2023/08/21 05:42:39;;;;;;;27.53;26.30;;;;;;;18.88;100.00;102265.72;5092008;28;20429;-42
2023/08/21 05:45:08;;;;;;;29.93;28.33;;;;;;;18.97;100.00;102277.94;5090862;28;20989;-43
2023/08/21 05:47:36;;;;;;;30.70;29.10;;;;;;;19.21;100.00;102274.50;5092059;28;20479;-46
2023/08/21 05:50:04;;;;;;;33.33;31.43;;;;;;;19.30;100.00;102275.06;5092412;28;20416;-47
2023/08/21 05:52:32;;;;;;;29.93;28.10;;;;;;;19.37;100.00;102269.63;5091651;28;21142;-45
2023/08/21 05:54:59;;;;;;;31.83;30.30;;;;;;;19.50;100.00;102278.53;5091029;28;20806;-43
2023/08/21 05:57:29;;;;;;;30.70;29.13;;;;;;;20.22;100.00;102280.63;5091105;28;20448;-42
2023/08/21 05:59:57;;;;;;;27.67;26.17;;;;;;;20.81;100.00;102277.34;5092180;28;20464;-42
2023/08/21 06:02:24;;;;;;;28.90;27.70;;;;;;;21.96;100.00;102272.56;5091798;28;20429;-42
2023/08/21 06:04:52;;;;;;;27.57;26.27;;;;;;;22.03;100.00;102260.53;5091461;28;20492;-45
2023/08/21 06:07:20;;;;;;;29.50;28.20;;;;;;;22.12;100.00;102249.31;5091560;28;20519;-45
2023/08/21 06:09:48;;;;;;;29.43;28.13;;;;;;;22.93;100.00;102251.91;5091836;28;20500;-43
2023/08/21 06:12:16;;;;;;;26.10;25.00;;;;;;;24.40;100.00;102256.06;5092113;28;20429;-43
2023/08/21 06:14:45;;;;;;;29.10;27.80;;;;;;;25.42;100.00;102245.28;5089728;28;21008;-42
2023/08/21 06:17:12;;;;;;;26.73;25.17;;;;;;;25.75;100.00;102234.13;5091242;28;20492;-44
2023/08/21 06:19:40;;;;;;;25.30;23.90;;;;;;;25.22;100.00;102239.63;5091241;28;20798;-45
2023/08/21 06:22:08;;;;;;;24.40;23.20;;;;;;;24.81;100.00;102240.28;5090122;28;20436;-44
2023/08/21 06:24:37;;;;;;;24.43;22.90;;;;;;;24.94;100.00;102248.06;5086943;28;20491;-43
2023/08/21 06:27:05;;;;;;;25.20;24.00;;;;;;;25.54;100.00;102237.78;5090935;28;20449;-42
2023/08/21 06:29:35;;;;;;;24.40;23.10;;;;;;;26.33;100.00;102243.28;5091530;28;20477;-45
2023/08/21 06:32:04;;;;;;;23.30;22.00;;;;;;;26.55;100.00;102246.69;5090376;28;20784;-42
2023/08/21 06:34:32;;;;;;;21.60;20.67;;;;;;;27.18;100.00;102242.78;5090904;28;20812;-42
2023/08/21 06:36:59;;;;;;;20.90;19.80;;;;;;;27.81;100.00;102240.66;5090809;28;20467;-42
2023/08/21 06:39:27;;;;;;;17.70;16.80;;;;;;;28.05;100.00;102246.44;5091116;28;20513;-44
2023/08/21 06:41:55;;;;;;;18.07;17.10;;;;;;;28.36;100.00;102246.06;5090207;28;20494;-43
2023/08/21 06:44:23;;;;;;;16.47;15.40;;;;;;;28.76;100.00;102244.31;5091074;28;20465;-40
2023/08/21 06:46:51;;;;;;;12.37;11.63;;;;;;;29.06;99.21;102242.19;5091080;28;20484;-46
2023/08/21 06:49:20;;;;;;;10.67;9.97;;;;;;;29.65;94.32;102246.75;5091499;28;20468;-42
2023/08/21 06:51:47;;;;;;;11.10;10.40;;;;;;;29.73;82.49;102248.88;5091084;28;20665;-47
2023/08/21 06:54:15;;;;;;;9.00;8.43;;;;;;;29.97;90.91;102237.94;5090385;28;20229;-43
2023/08/21 06:56:43;;;;;;;8.97;8.37;;;;;;;30.10;82.76;102238.09;5090518;28;20198;-43
2023/08/21 06:59:11;;;;;;;7.70;7.20;;;;;;;30.63;88.96;102235.28;5090462;28;20199;-45
2023/08/21 07:01:38;;;;;;;8.07;7.50;;;;;;;31.02;86.56;102238.63;5090133;28;20198;-42
2023/08/21 07:04:06;;;;;;;8.20;7.40;;;;;;;31.04;80.58;102239.16;5090510;28;20246;-42
2023/08/21 07:06:35;;;;;;;7.67;6.97;;;;;;;31.02;77.57;102248.84;5091208;28;20584;-42
2023/08/21 07:09:04;;;;;;;7.97;6.90;;;;;;;31.00;81.00;102251.06;5090570;28;20222;-44
2023/08/21 07:11:31;;;;;;;8.65;7.78;;;;;;;30.83;77.81;102247.97;5089753;28;20195;-42
2023/08/21 07:13:59;;;;;;;7.00;6.30;;;;;;;30.87;75.42;102244.34;5090441;28;20218;-42
2023/08/21 07:16:27;;;;;;;8.47;7.60;;;;;;;30.31;67.51;102246.13;5090706;28;20251;-42
2023/08/21 07:18:55;;;;;;;16.83;8.17;;;;;;;30.28;74.87;102252.22;5091071;28;20199;-44
2023/08/21 07:21:22;;;;;;;7.57;6.60;;;;;;;29.84;77.33;102244.94;5090415;28;20248;-42
2023/08/21 07:24:03;;;;;;;6.80;6.20;;;;;;;29.56;67.32;102243.81;5089565;28;20747;-44
2023/08/21 07:26:31;;;;;;;7.50;6.80;;;;;;;29.58;76.28;102247.06;5090162;28;20206;-42
2023/08/21 07:28:59;;;;;;;8.70;6.77;;;;;;;29.24;70.21;102248.19;5089885;28;20243;-42
2023/08/21 07:31:26;;;;;;;11.27;6.55;;;;;;;29.29;79.00;102253.63;5089830;28;20191;-45
2023/08/21 07:33:54;;;;;;;6.93;6.43;;;;;;;29.18;80.75;102246.53;5089622;28;20215;-42
2023/08/21 07:36:22;;;;;;;7.70;5.80;;;;;;;28.64;77.70;102243.78;5090347;28;20191;-42
2023/08/21 07:38:50;;;;;;;8.60;5.97;;;;;;;28.48;79.37;102254.00;5090191;28;20215;-44
2023/08/21 07:41:19;;;;;;;6.87;6.27;;;;;;;28.01;85.40;102249.72;5089033;28;20195;-42
2023/08/21 07:43:47;;;;;;;9.20;6.73;;;;;;;27.95;85.32;102250.81;5088572;28;20214;-42
2023/08/21 07:46:18;;;;;;;7.13;6.40;;;;;;;27.32;89.08;102251.31;5089784;28;20275;-42
2023/08/21 07:48:46;;;;;;;10.43;7.40;;;;;;;27.83;92.03;102247.53;5089700;28;20509;-41
2023/08/21 07:51:15;;;;;;;6.40;5.80;;;;;;;27.80;92.90;102248.09;5089984;28;20524;-41
2023/08/21 07:53:43;;;;;;;10.50;6.73;;;;;;;27.26;94.40;102247.75;5088184;28;20880;-42
2023/08/21 07:56:11;;;;;;;6.43;5.83;;;;;;;26.72;93.53;102254.69;5089552;28;20429;-42
2023/08/21 07:58:40;;;;;;;6.83;5.87;;;;;;;26.66;99.78;102258.50;5089388;28;20453;-42
2023/08/21 08:01:07;;;;;;;9.33;6.90;;;;;;;26.49;100.00;102263.34;5089070;28;20464;-43
2023/08/21 08:03:35;;;;;;;9.30;6.47;;;;;;;26.16;100.00;102256.31;5088616;28;20822;-42
2023/08/21 08:06:03;;;;;;;7.50;6.10;;;;;;;26.11;100.00;102250.75;5089279;28;20482;-42
2023/08/21 08:08:33;;;;;;;5.80;5.40;;;;;;;25.88;100.00;102252.00;5089246;28;20503;-43
2023/08/21 08:11:04;;;;;;;7.33;6.70;;;;;;;25.33;100.00;102259.69;5089648;28;20836;-43
2023/08/21 08:13:32;;;;;;;8.10;7.40;;;;;;;24.52;100.00;102267.69;5089276;28;20487;-42
2023/08/21 08:16:01;;;;;;;9.23;7.10;;;;;;;24.33;100.00;102270.97;5089111;28;20435;-43
2023/08/21 08:18:29;;;;;;;9.80;7.57;;;;;;;24.38;100.00;102265.59;5088899;28;20437;-45
2023/08/21 08:20:57;;;;;;;8.67;6.20;;;;;;;25.12;100.00;102264.06;5089431;28;20429;-44
2023/08/21 08:23:25;;;;;;;6.70;6.10;;;;;;;25.35;100.00;102252.88;5088593;28;20844;-43
2023/08/21 08:25:53;;;;;;;6.70;6.10;;;;;;;24.93;100.00;102260.91;5089562;28;21000;-45
2023/08/21 08:28:20;;;;;;;7.90;6.43;;;;;;;24.74;100.00;102263.09;5089368;28;20510;-42
2023/08/21 08:30:48;;;;;;;8.03;6.10;;;;;;;24.17;100.00;102268.03;5088644;28;20546;-44
2023/08/21 08:33:17;;;;;;;9.43;6.23;;;;;;;23.91;100.00;102270.59;5088940;28;20433;-44
2023/08/21 08:35:45;;;;;;;8.83;6.10;;;;;;;23.67;100.00;102264.47;5089566;28;20436;-43
2023/08/21 08:38:12;;;;;;;6.97;6.20;;;;;;;24.11;100.00;102265.47;5089460;28;20459;-45
2023/08/21 08:40:44;;;;;;;8.23;6.10;;;;;;;24.49;100.00;102265.47;5089201;28;20520;-44
2023/08/21 08:43:12;;;;;;;13.57;6.70;;;;;;;24.93;100.00;102260.91;5087955;28;20432;-42
2023/08/21 08:45:41;;;;;;;6.20;5.30;;;;;;;25.42;100.00;102261.66;5089039;28;21189;-42
2023/08/21 08:48:10;;;;;;;5.83;5.13;;;;;;;25.70;99.55;102257.84;5089460;28;20448;-45
2023/08/21 08:50:41;;;;;;;6.40;4.50;;;;;;;26.13;95.89;102257.66;5088950;28;20538;-43
2023/08/21 08:53:10;;;;;;;5.73;5.23;;;;;;;26.30;99.84;102249.28;5088532;28;20536;-43
2023/08/21 08:55:44;;;;;;;7.47;5.33;;;;;;;26.22;91.84;102250.59;5088701;28;20481;-42
2023/08/21 08:58:12;;;;;;;7.20;5.10;;;;;;;26.38;94.09;102246.03;5088298;28;20459;-44
2023/08/21 09:00:40;;;;;;;8.23;5.43;;;;;;;26.58;92.34;102246.13;5089554;28;20768;-43
2023/08/21 09:03:08;;;;;;;6.50;5.07;;;;;;;25.86;93.10;102243.25;5087828;28;20433;-42
2023/08/21 09:05:37;;;;;;;7.13;5.17;;;;;;;25.11;98.50;102244.19;5091014;28;20467;-43
2023/08/21 09:08:10;;;;;;;5.50;4.50;;;;;;;24.13;100.00;102255.97;5092994;28;20825;-47
2023/08/21 09:10:39;;;;;;;6.77;5.27;;;;;;;23.66;100.00;102260.91;5093050;28;20472;-42
2023/08/21 09:13:12;;;;;;;8.90;5.50;;;;;;;23.12;100.00;102258.81;5092876;28;20433;-42
2023/08/21 09:15:42;;;;;;;5.93;5.40;;;;;;;23.05;100.00;102263.59;5071201;28;20448;-46
2023/08/21 09:18:11;;;;;;;7.93;6.40;;;;;;;22.80;100.00;102271.22;5072347;28;20510;-43
2023/08/21 09:20:40;;;;;;;12.93;5.80;;;;;;;22.72;100.00;102269.72;5071427;28;20490;-44
2023/08/21 09:23:14;;;;;;;6.87;6.17;;;;;;;23.55;100.00;102267.28;5071870;28;20919;-42
2023/08/21 09:25:44;;;;;;;6.20;5.70;;;;;;;23.97;100.00;102266.88;5091840;28;20433;-45
2023/08/21 09:28:12;;;;;;;4.80;4.40;;;;;;;23.96;100.00;102257.03;5092109;28;20452;-45
2023/08/21 09:30:48;;;;;;;5.07;4.57;;;;;;;24.54;100.00;102264.72;5092164;28;20526;-42
2023/08/21 09:33:18;;;;;;;5.97;3.80;;;;;;;24.94;100.00;102254.34;5091293;28;20932;-43
2023/08/21 09:35:46;;;;;;;5.40;4.03;;;;;;;25.08;95.23;102247.41;5092034;28;21208;-42
2023/08/21 09:38:16;;;;;;;5.00;4.10;;;;;;;24.94;98.28;102264.44;5091697;28;20448;-41
2023/08/21 09:40:50;;;;;;;5.03;4.10;;;;;;;25.11;100.00;102259.72;5091733;28;20959;-43
2023/08/21 09:43:18;;;;;;;4.43;4.00;;;;;;;25.89;100.00;102261.84;5091112;28;20431;-43
2023/08/21 09:45:48;;;;;;;10.53;5.00;;;;;;;25.62;95.68;102252.88;5092061;28;20436;-43
2023/08/21 09:48:16;;;;;;;7.30;3.90;;;;;;;25.99;86.86;102261.06;5092112;28;20480;-44
2023/08/21 09:50:45;;;;;;;5.43;3.40;;;;;;;26.12;85.58;102253.25;5092045;28;20989;-43
2023/08/21 09:53:15;;;;;;;3.80;3.40;;;;;;;26.18;83.07;102251.41;5091298;28;20954;-42
2023/08/21 09:55:44;;;;;;;5.90;4.00;;;;;;;26.10;86.10;102243.66;5092389;28;20440;-43
2023/08/21 09:58:12;;;;;;;3.40;3.13;;;;;;;25.94;86.84;102244.66;5091760;28;20999;-44
2023/08/21 10:00:39;;;;;;;6.03;4.40;;;;;;;25.72;87.99;102245.56;5094159;28;20425;-44
2023/08/21 10:03:09;;;;;;;3.70;3.40;;;;;;;25.51;88.16;102243.75;5099476;28;20483;-43
2023/08/21 10:05:42;;;;;;;5.20;4.00;;;;;;;25.62;93.33;102242.78;5099662;28;20441;-42
2023/08/21 10:08:10;;;;;;;5.17;3.70;;;;;;;25.31;96.63;102240.81;5099259;28;20480;-45
2023/08/21 10:10:39;;;;;;;4.37;3.97;;;;;;;26.07;95.47;102245.03;5099832;28;21260;-45
2023/08/21 10:13:09;;;;;;;4.53;4.03;;;;;;;26.67;89.82;102241.78;5099111;28;20437;-44
2023/08/21 10:15:38;;;;;;;3.90;3.70;;;;;;;26.88;87.25;102242.75;5078530;28;20465;-43
2023/08/21 10:18:23;;;;;;;5.77;3.80;;;;;;;27.13;85.94;102237.31;5078748;28;20457;-45
2023/08/21 10:20:51;;;;;;;5.97;3.83;;;;;;;26.12;83.39;102242.31;5078798;28;20461;-46
2023/08/21 10:23:26;;;;;;;3.80;3.50;;;;;;;25.94;80.49;102241.91;5079800;28;20487;-43
2023/08/21 10:25:59;;;;;;;4.60;4.20;;;;;;;25.70;78.59;102241.47;5099016;28;20459;-42
2023/08/21 10:28:49;;;;;;;4.10;3.70;;;;;;;25.46;81.94;102243.69;5098960;28;20452;-42
2023/08/21 10:31:34;;;;;;;5.23;3.50;;;;;;;25.72;87.21;102242.00;5098660;28;20472;-45
2023/08/21 10:34:04;;;;;;;6.73;4.03;;;;;;;26.23;83.62;102241.31;5099120;28;20522;-45
2023/08/21 10:36:39;;;;;;;6.93;4.37;;;;;;;26.05;78.79;102244.44;5099029;28;20417;-46
2023/08/21 10:39:14;;;;;;;4.23;3.77;;;;;;;25.42;84.54;102248.00;5099561;28;20436;-44
2023/08/21 10:41:54;;;;;;;4.63;3.40;;;;;;;25.27;86.04;102239.66;5099024;28;20405;-43
2023/08/21 10:44:36;;;;;;;4.90;4.20;;;;;;;25.62;81.78;102240.03;5098398;28;20540;-43
2023/08/21 10:47:17;;;;;;;3.77;3.47;;;;;;;26.39;86.40;102244.97;5099401;28;20451;-43
2023/08/21 10:49:47;;;;;;;8.87;3.73;;;;;;;26.93;82.90;102248.22;5098565;28;20453;-43
2023/08/21 10:52:15;;;;;;;5.50;3.50;;;;;;;26.47;77.76;102254.56;5097860;28;20506;-45
2023/08/21 10:54:47;;;;;;;4.17;3.83;;;;;;;25.84;81.31;102251.69;5098759;28;20514;-48
2023/08/21 10:57:17;;;;;;;3.77;3.43;;;;;;;25.21;87.05;102254.34;5099556;28;20502;-43
2023/08/21 10:59:58;;;;;;;6.33;3.37;;;;;;;25.02;80.58;102251.16;5099242;28;20522;-45
2023/08/21 11:02:28;;;;;;;3.73;3.27;;;;;;;25.46;83.07;102261.97;5099155;28;21009;-44
2023/08/21 11:04:57;;;;;;;6.80;3.70;;;;;;;25.96;85.95;102256.97;5098958;28;20577;-46
2023/08/21 11:07:25;;;;;;;7.47;3.57;;;;;;;26.19;85.99;102253.88;5098634;28;20449;-43
2023/08/21 11:09:53;;;;;;;5.00;3.40;;;;;;;25.23;83.92;102254.94;5098722;28;20436;-43
2023/08/21 11:12:24;;;;;;;4.10;3.70;;;;;;;24.70;83.02;102261.94;5098171;28;20473;-48